Philippi, WV (26416)

1:09 PM EST on December 03, 2016 (GMT -0500)
MANSFIELD ON SUTTON ST | | Change Station

Elev 1450 ft 39.15 °N, 80.06 °W | Updated 18 seconds ago

Overcast
Overcast
36.0 °F
Feels Like 36 °F
N
1.3
Wind Variable Wind from WSW
Gusts 2.5 mph

Today
High -- | Low -- °F
--% Chance of Precip.
Yesterday
High -- | Low -- °F
Precip. -- in
Pressure 30.29 in
Visibility 10.0 miles
Clouds Overcast 2700 ft
Windchill 36 °F
Dew Point 23 °F
Humidity 59%
Rainfall 0.00 in
Snow Depth Not available.
7:22 AM 4:57 PM
Waxing Crescent, 16% visible
METAR KCKB 031753Z 31008KT 10SM OVC027 02/M03 A3027 RMK AO2 SLP256 T00221033 10028 20017 58015
Pressure 30.29 in
Visibility 10.0 miles
Clouds Overcast 2700 ft
Windchill 36 °F
Dew Point 23 °F
Humidity 59%
Rainfall 0.00 in
Snow Depth Not available.
7:22 AM 4:57 PM
Waxing Crescent, 16% visible
METAR KCKB 031753Z 31008KT 10SM OVC027 02/M03 A3027 RMK AO2 SLP256 T00221033 10028 20017 58015

10-Day Weather Forecast

Almanac

Astronomy

Dec. 03, 2016 Rise Set
Actual Time
Civil Twilight
Nautical Twilight
Astronomical Twilight
Moon
Length of Visible Light
Length of Day
Tomorrow will be .
, % of the Moon is Illuminated

Today's Extremes

State Highs State Lows

Community

WunderPhotos

Upload Photos

1,955,455 photos uploaded!

WunderBlog® & News

Nearby

Air Quality

  Air Quality AQ Index Pollutant
Not available.

Snow Depth

Station Depth Elevation

Earthquake Activity

City Distance Mag. Time & Date
Minimum magnitude displayed is 2.5.

Coastal Water Temperatures

Place Temperature

Stations

Nearby Weather Stations

Station Location Temp. Windchill Dew Point Humidity Wind Precip. Elev Updated Type
                   

Watches & Warnings

There are currently no watches in effect.